createdAt,value
2019-04-25T00:01:42.525Z,26.17
2019-04-25T00:04:13.536Z,24.53
2019-04-25T00:06:44.010Z,25.53
2019-04-25T00:09:22.276Z,25.47
2019-04-25T00:11:52.428Z,24.90
2019-04-25T00:14:23.953Z,25.20
2019-04-25T00:16:54.954Z,23.60
2019-04-25T00:19:24.908Z,24.70
2019-04-25T00:22:05.471Z,24.63
2019-04-25T00:24:53.301Z,24.83
2019-04-25T00:27:28.899Z,25.27
2019-04-25T00:29:59.683Z,23.73
2019-04-25T00:32:31.457Z,27.10
2019-04-25T00:35:01.860Z,25.57
2019-04-25T00:37:32.380Z,26.20
2019-04-25T00:40:02.517Z,24.67
2019-04-25T00:42:32.436Z,25.60
2019-04-25T00:45:02.666Z,25.50
2019-04-25T00:47:32.681Z,24.37
2019-04-25T00:50:02.592Z,25.87
2019-04-25T00:52:32.499Z,27.30
2019-04-25T00:55:02.517Z,26.60
2019-04-25T00:57:32.514Z,26.70
2019-04-25T01:00:07.259Z,26.07
2019-04-25T01:02:38.916Z,23.50
2019-04-25T01:05:09.547Z,26.90
2019-04-25T01:07:39.565Z,24.23
2019-04-25T01:10:11.905Z,26.53
2019-04-25T01:12:41.948Z,25.23
2019-04-25T01:15:12.582Z,24.90
2019-04-25T01:17:42.497Z,24.60
2019-04-25T01:20:14.341Z,24.63
2019-04-25T01:22:45.664Z,24.17
2019-04-25T01:25:16.028Z,26.70
2019-04-25T01:27:46.194Z,25.47
2019-04-25T01:30:16.633Z,24.60
2019-04-25T01:32:46.784Z,23.37
2019-04-25T01:35:25.006Z,23.57
2019-04-25T01:38:05.341Z,20.77
2019-04-25T01:40:37.019Z,23.47
2019-04-25T01:43:14.512Z,18.43
2019-04-25T01:45:44.633Z,17.57
2019-04-25T01:48:14.957Z,16.53
2019-04-25T01:50:44.973Z,14.87
2019-04-25T01:53:15.205Z,13.43
2019-04-25T01:55:53.300Z,11.87
2019-04-25T02:00:51.563Z,11.10
2019-04-25T02:03:25.373Z,9.13
2019-04-25T02:05:55.239Z,9.33
2019-04-25T02:08:25.509Z,10.33
2019-04-25T02:11:04.373Z,7.93
2019-04-25T02:13:35.828Z,7.93
2019-04-25T02:16:08.080Z,7.10
2019-04-25T02:18:38.199Z,7.93
2019-04-25T02:21:08.215Z,8.03
2019-04-25T02:23:38.208Z,7.80
2019-04-25T02:26:15.637Z,7.43
2019-04-25T02:28:39.703Z,7.00
2019-04-25T02:31:09.818Z,8.70
2019-04-25T02:33:39.734Z,7.40
2019-04-25T02:36:09.649Z,6.77
2019-04-25T02:38:39.868Z,6.50
2019-04-25T02:41:10.088Z,7.53
2019-04-25T02:43:40.109Z,6.90
2019-04-25T02:46:17.803Z,7.80
2019-04-25T02:48:52.195Z,6.50
2019-04-25T02:51:35.773Z,6.60
2019-04-25T02:54:07.955Z,7.53
2019-04-25T02:56:38.948Z,8.27
2019-04-25T02:59:09.300Z,8.03
2019-04-25T03:01:39.593Z,7.80
2019-04-25T03:04:11.390Z,8.63
2019-04-25T03:06:41.082Z,7.27
2019-04-25T03:09:12.343Z,7.53
2019-04-25T03:11:44.965Z,7.93
2019-04-25T03:14:14.700Z,8.03
2019-04-25T03:16:45.062Z,8.17
2019-04-25T03:19:24.350Z,7.40
2019-04-25T03:21:55.026Z,7.93
2019-04-25T03:24:25.230Z,8.77
2019-04-25T03:26:55.448Z,7.67
2019-04-25T03:29:25.260Z,8.20
2019-04-25T03:31:55.952Z,9.60
2019-04-25T03:34:26.291Z,8.10
2019-04-25T03:36:56.220Z,9.17
2019-04-25T03:39:27.091Z,8.30
2019-04-25T03:41:57.192Z,8.10
2019-04-25T03:44:27.203Z,9.43
2019-04-25T03:46:58.884Z,8.80
2019-04-25T03:49:28.772Z,7.90
2019-04-25T03:52:00.594Z,8.03
2019-04-25T03:54:30.652Z,7.57
2019-04-25T03:57:00.450Z,6.97
2019-04-25T03:59:30.376Z,8.20
2019-04-25T04:02:01.239Z,6.30
2019-04-25T04:04:31.539Z,7.30
2019-04-25T04:07:01.556Z,7.00
2019-04-25T04:09:31.572Z,7.00
2019-04-25T04:12:03.324Z,7.40
2019-04-25T04:14:33.821Z,6.37
2019-04-25T04:17:23.500Z,7.20
2019-04-25T04:19:58.438Z,6.20
2019-04-25T04:22:34.122Z,7.00
2019-04-25T04:25:07.560Z,6.23
2019-04-25T04:27:37.630Z,6.67
2019-04-25T04:30:10.692Z,6.50
2019-04-25T04:32:41.278Z,5.00
2019-04-25T04:35:11.206Z,5.33
2019-04-25T04:37:40.992Z,5.50
2019-04-25T04:40:11.634Z,5.47
2019-04-25T04:42:44.797Z,5.43
2019-04-25T04:45:15.736Z,4.97
2019-04-25T04:47:46.653Z,5.20
2019-04-25T04:50:16.688Z,5.37
2019-04-25T04:52:46.708Z,4.90
2019-04-25T04:55:17.621Z,5.07
2019-04-25T04:57:48.180Z,4.30
2019-04-25T05:00:18.650Z,4.30
2019-04-25T05:02:56.502Z,4.80
2019-04-25T05:05:31.235Z,5.10
2019-04-25T05:08:05.552Z,5.10
2019-04-25T05:10:35.541Z,9.73
2019-04-25T05:13:05.583Z,57.57
2019-04-25T05:15:36.009Z,61.50
2019-04-25T05:18:06.025Z,51.87
2019-04-25T05:20:36.045Z,52.47
2019-04-25T05:23:08.812Z,48.90
2019-04-25T05:25:37.615Z,44.77
2019-04-25T05:28:07.550Z,36.10
2019-04-25T05:30:48.171Z,34.10
2019-04-25T05:33:20.952Z,28.70
2019-04-25T05:35:49.765Z,23.70
2019-04-25T05:38:20.107Z,21.90
2019-04-25T05:40:51.850Z,19.80
2019-04-25T05:43:23.668Z,20.30
2019-04-25T05:45:54.102Z,15.53
2019-04-25T05:48:25.362Z,15.73
2019-04-25T05:50:56.010Z,16.73
2019-04-25T05:53:26.325Z,12.07
2019-04-25T05:55:56.557Z,13.50
2019-04-25T05:58:27.014Z,12.07
2019-04-25T06:00:57.406Z,10.10
2019-04-25T06:03:27.624Z,11.93
2019-04-25T06:05:57.853Z,10.27
2019-04-25T06:08:29.404Z,9.10
2019-04-25T06:11:04.125Z,9.40
2019-04-25T06:13:36.102Z,7.60
2019-04-25T06:16:07.646Z,7.83
2019-04-25T06:18:41.929Z,7.27
2019-04-25T06:21:13.363Z,6.60
2019-04-25T06:23:51.014Z,6.13
2019-04-25T06:26:32.710Z,8.03
2019-04-25T06:28:58.976Z,6.27
2019-04-25T06:31:26.841Z,6.20
2019-04-25T06:33:56.299Z,5.70
2019-04-25T06:36:27.042Z,6.20
2019-04-25T06:38:57.020Z,6.03
2019-04-25T06:41:27.128Z,5.87
2019-04-25T06:43:59.028Z,5.63
2019-04-25T06:46:47.170Z,5.50
2019-04-25T06:49:18.694Z,5.40
2019-04-25T06:51:49.735Z,4.33
2019-04-25T06:54:21.735Z,4.70
2019-04-25T06:56:53.402Z,5.17
2019-04-25T06:59:25.982Z,5.50
2019-04-25T07:01:56.142Z,4.73
2019-04-25T07:04:26.986Z,4.30
2019-04-25T07:07:09.416Z,4.27
2019-04-25T07:09:30.877Z,5.07
2019-04-25T07:12:01.152Z,4.60
2019-04-25T07:14:33.831Z,4.77
2019-04-25T07:17:04.248Z,4.30
2019-04-25T07:19:35.583Z,4.83
2019-04-25T07:22:05.711Z,3.80
2019-04-25T07:24:35.593Z,4.20
2019-04-25T07:27:13.785Z,4.80
2019-04-25T07:29:45.619Z,4.23
2019-04-25T07:32:19.863Z,4.90
2019-04-25T07:34:50.057Z,4.10
2019-04-25T07:37:19.825Z,4.77
2019-04-25T07:39:50.086Z,3.80
2019-04-25T07:42:20.109Z,4.70
2019-04-25T07:44:53.001Z,4.27
2019-04-25T07:47:21.689Z,3.83
2019-04-25T07:49:51.791Z,4.93
2019-04-25T07:52:23.273Z,5.03
2019-04-25T07:54:53.900Z,5.27
2019-04-25T07:57:24.094Z,5.30
2019-04-25T07:59:54.114Z,5.53
2019-04-25T08:02:24.131Z,6.30
2019-04-25T08:04:54.375Z,5.50
2019-04-25T08:07:25.906Z,5.00
2019-04-25T08:09:55.927Z,6.10
2019-04-25T08:12:25.835Z,6.40
2019-04-25T08:14:57.490Z,8.57
2019-04-25T08:17:41.329Z,8.37
2019-04-25T08:20:13.570Z,7.43
2019-04-25T08:22:55.457Z,7.27
2019-04-25T08:25:16.071Z,7.13
2019-04-25T08:27:45.983Z,8.33
2019-04-25T08:30:16.199Z,6.67
2019-04-25T08:32:46.349Z,6.00
2019-04-25T08:35:16.261Z,6.60
2019-04-25T08:37:46.796Z,6.43
2019-04-25T08:40:17.321Z,6.40
2019-04-25T08:42:47.336Z,6.70
2019-04-25T08:45:17.581Z,6.30
2019-04-25T08:47:47.444Z,5.47
2019-04-25T08:50:28.962Z,6.03
2019-04-25T08:52:51.094Z,5.63
2019-04-25T08:55:40.015Z,5.23
2019-04-25T08:58:13.784Z,5.90
2019-04-25T09:00:59.057Z,5.90
2019-04-25T09:03:30.314Z,5.60
2019-04-25T09:06:00.500Z,4.10
2019-04-25T09:08:30.484Z,5.10
2019-04-25T09:11:00.531Z,4.50
2019-04-25T09:13:30.554Z,4.40
2019-04-25T09:16:00.565Z,4.80
2019-04-25T09:18:34.711Z,4.17
2019-04-25T09:21:03.876Z,4.07
2019-04-25T09:23:36.194Z,3.93
2019-04-25T09:26:05.980Z,4.30
2019-04-25T09:28:38.054Z,3.50
2019-04-25T09:31:08.392Z,3.93
2019-04-25T09:33:39.140Z,4.57
2019-04-25T09:36:09.301Z,3.60
2019-04-25T09:38:39.194Z,5.43
2019-04-25T09:41:09.103Z,4.03
2019-04-25T09:43:39.146Z,4.10
2019-04-25T09:46:10.804Z,3.97
2019-04-25T09:48:44.286Z,3.50
2019-04-25T09:51:15.956Z,3.63
2019-04-25T09:53:50.996Z,3.27
2019-04-25T09:56:19.573Z,3.33
2019-04-25T09:58:51.126Z,3.50
2019-04-25T10:01:23.892Z,2.70
2019-04-25T10:03:54.370Z,3.10
2019-04-25T10:06:24.762Z,2.10
2019-04-25T10:08:54.966Z,2.13
2019-04-25T10:11:25.000Z,2.57
2019-04-25T10:14:00.754Z,2.33
2019-04-25T10:16:30.770Z,2.40
2019-04-25T10:19:03.419Z,2.30
2019-04-25T10:21:32.105Z,2.17
2019-04-25T10:24:03.539Z,1.63
2019-04-25T10:26:34.919Z,1.60
2019-04-25T10:29:05.706Z,1.57
2019-04-25T10:31:35.790Z,1.80
2019-04-25T10:34:06.119Z,2.10
2019-04-25T10:36:38.690Z,1.57
2019-04-25T10:39:11.210Z,1.20
2019-04-25T10:41:41.127Z,1.20
2019-04-25T10:44:11.398Z,1.63
2019-04-25T10:46:41.767Z,1.40
2019-04-25T10:49:11.946Z,1.60
2019-04-25T10:51:42.785Z,1.10
2019-04-25T10:54:14.539Z,1.10
2019-04-25T10:56:47.018Z,0.90
2019-04-25T10:59:16.619Z,1.80
2019-04-25T11:01:47.339Z,0.93
2019-04-25T11:04:19.113Z,1.03
2019-04-25T11:06:49.335Z,1.00
2019-04-25T11:09:22.128Z,1.00
2019-04-25T11:11:52.391Z,1.20
2019-04-25T11:14:23.819Z,1.10
2019-04-25T11:16:55.234Z,1.00
2019-04-25T11:19:25.562Z,1.00
2019-04-25T11:21:55.885Z,0.97
2019-04-25T11:24:25.803Z,0.90
2019-04-25T11:26:56.183Z,1.00
2019-04-25T11:29:26.247Z,1.07
2019-04-25T11:31:56.259Z,1.30
2019-04-25T11:34:26.560Z,1.00
2019-04-25T11:36:56.533Z,0.80
2019-04-25T11:39:28.158Z,0.80
2019-04-25T11:41:58.477Z,0.70
2019-04-25T11:44:28.602Z,0.70
2019-04-25T11:46:58.845Z,0.80
2019-04-25T11:49:28.938Z,0.80
2019-04-25T11:51:58.857Z,0.93
2019-04-25T11:54:29.177Z,0.80
2019-04-25T11:56:59.296Z,1.20
2019-04-25T11:59:29.314Z,0.70
2019-04-25T12:01:59.434Z,1.13
2019-04-25T12:04:29.551Z,0.90
2019-04-25T12:07:03.810Z,0.80
2019-04-25T12:09:33.675Z,1.00
2019-04-25T12:12:03.819Z,0.70
2019-04-25T12:14:34.434Z,0.90
2019-04-25T12:17:04.849Z,0.70
2019-04-25T12:19:37.812Z,0.80
2019-04-25T12:22:06.426Z,0.80
2019-04-25T12:24:36.315Z,1.00
2019-04-25T12:27:06.666Z,1.20
2019-04-25T12:29:38.739Z,0.80
2019-04-25T12:32:08.299Z,0.87
2019-04-25T12:34:38.119Z,1.10
2019-04-25T12:37:08.170Z,1.10
2019-04-25T12:39:38.158Z,1.00
2019-04-25T12:42:08.294Z,1.17
2019-04-25T12:44:40.061Z,0.80
2019-04-25T12:47:13.515Z,1.47
2019-04-25T12:49:43.773Z,0.80
2019-04-25T12:52:14.207Z,1.40
2019-04-25T12:54:44.229Z,1.10
2019-04-25T12:57:14.856Z,1.10
2019-04-25T12:59:45.184Z,0.80
2019-04-25T13:02:15.196Z,1.10
2019-04-25T13:04:45.192Z,0.97
2019-04-25T13:07:15.441Z,1.00
2019-04-25T13:09:45.556Z,0.80
2019-04-25T13:12:15.936Z,1.10
2019-04-25T13:14:46.117Z,0.93
2019-04-25T13:17:16.527Z,0.97
2019-04-25T13:19:46.678Z,1.07
2019-04-25T13:22:17.279Z,1.17
2019-04-25T13:24:47.192Z,0.73
2019-04-25T13:27:18.747Z,0.93
2019-04-25T13:30:07.750Z,1.00
2019-04-25T13:32:42.102Z,0.97
2019-04-25T13:35:13.784Z,0.80
2019-04-25T13:37:44.014Z,0.80
2019-04-25T13:40:16.925Z,1.03
2019-04-25T13:42:45.981Z,1.07
2019-04-25T13:45:17.477Z,0.80
2019-04-25T13:47:47.457Z,1.03
2019-04-25T13:50:17.572Z,1.47
2019-04-25T13:52:47.587Z,1.07
2019-04-25T13:55:17.405Z,0.90
2019-04-25T13:57:47.388Z,0.70
2019-04-25T14:00:19.273Z,0.90
2019-04-25T14:02:49.194Z,1.10
2019-04-25T14:05:21.134Z,0.70
2019-04-25T14:07:51.575Z,1.00
2019-04-25T14:10:23.013Z,0.90
2019-04-25T14:12:53.585Z,1.07
2019-04-25T14:15:25.503Z,0.80
2019-04-25T14:18:06.287Z,1.27
2019-04-25T14:20:37.843Z,1.00
2019-04-25T14:23:09.088Z,0.70
2019-04-25T14:25:39.412Z,0.90
2019-04-25T14:28:09.733Z,1.10
2019-04-25T14:30:40.472Z,2.70
2019-04-25T14:33:10.384Z,1.67
2019-04-25T14:35:40.400Z,1.90
2019-04-25T14:38:10.417Z,5.27
2019-04-25T14:40:42.253Z,2.47
2019-04-25T14:43:12.091Z,1.87
2019-04-25T14:45:44.929Z,2.57
2019-04-25T14:48:13.634Z,2.67
2019-04-25T14:50:43.783Z,3.20
2019-04-25T14:53:13.898Z,3.47
2019-04-25T14:55:57.712Z,2.73
2019-04-25T14:58:30.305Z,3.00
2019-04-25T15:01:00.421Z,2.43
2019-04-25T15:03:30.452Z,2.63
2019-04-25T15:06:00.365Z,1.60
2019-04-25T15:08:30.692Z,1.77
2019-04-25T15:11:01.118Z,1.60
2019-04-25T15:13:31.800Z,1.47
2019-04-25T15:16:04.666Z,1.10
2019-04-25T15:18:45.852Z,0.90
2019-04-25T15:21:05.672Z,1.00
2019-04-25T15:23:35.815Z,1.10
2019-04-25T15:26:05.933Z,1.17
2019-04-25T15:28:36.341Z,0.90
2019-04-25T15:31:06.576Z,0.90
2019-04-25T15:33:36.698Z,1.00
2019-04-25T15:36:10.923Z,0.80
2019-04-25T15:38:42.473Z,0.87
2019-04-25T15:41:30.456Z,0.80
2019-04-25T15:44:20.795Z,0.73
2019-04-25T15:46:52.326Z,1.10
2019-04-25T15:49:22.336Z,0.80
2019-04-25T15:51:52.382Z,0.77
2019-04-25T15:54:23.270Z,0.63
2019-04-25T15:56:53.337Z,0.70
2019-04-25T15:59:23.231Z,0.70
2019-04-25T16:01:53.240Z,0.80
2019-04-25T16:04:23.347Z,0.70
2019-04-25T16:06:53.406Z,0.70
2019-04-25T16:09:23.523Z,0.63
2019-04-25T16:11:53.438Z,0.97
2019-04-25T16:14:23.366Z,0.93
2019-04-25T16:16:53.267Z,0.70
2019-04-25T16:19:23.402Z,0.97
2019-04-25T16:21:53.407Z,0.90
2019-04-25T16:24:23.419Z,0.90
2019-04-25T16:26:53.436Z,0.70
2019-04-25T16:29:23.556Z,1.10
2019-04-25T16:31:53.788Z,0.73
2019-04-25T16:34:23.702Z,0.90
2019-04-25T16:36:53.722Z,0.67
2019-04-25T16:39:25.368Z,0.83
2019-04-25T16:41:55.279Z,0.80
2019-04-25T16:44:25.193Z,0.70
2019-04-25T16:46:55.521Z,0.70
2019-04-25T16:49:25.536Z,0.77
2019-04-25T16:51:55.451Z,0.80
2019-04-25T16:54:25.569Z,0.67
2019-04-25T16:56:55.614Z,1.10
2019-04-25T16:59:25.602Z,0.60
2019-04-25T17:01:55.618Z,0.80
2019-04-25T17:04:25.637Z,0.93
2019-04-25T17:06:57.065Z,0.80
2019-04-25T17:09:27.003Z,0.90
2019-04-25T17:11:57.047Z,0.80
2019-04-25T17:14:45.078Z,0.87
2019-04-25T17:17:31.875Z,0.70
2019-04-25T17:20:22.395Z,0.80
2019-04-25T17:22:52.387Z,0.60
2019-04-25T17:25:22.269Z,1.03
2019-04-25T17:27:52.316Z,0.53
2019-04-25T17:30:22.195Z,0.70
2019-04-25T17:32:54.135Z,0.73
2019-04-25T17:35:39.803Z,0.80
2019-04-25T17:38:11.633Z,0.80
2019-04-25T17:40:41.883Z,0.70
2019-04-25T17:43:12.079Z,0.83
2019-04-25T17:45:42.197Z,1.03
2019-04-25T17:48:12.286Z,0.70
2019-04-25T17:50:43.883Z,0.90
2019-04-25T17:53:14.103Z,0.80
2019-04-25T17:55:44.106Z,1.07
2019-04-25T17:58:14.226Z,0.93
2019-04-25T18:00:45.757Z,1.47
2019-04-25T18:03:16.194Z,1.00
2019-04-25T18:05:46.125Z,1.70
2019-04-25T18:08:18.908Z,1.83
2019-04-25T18:10:49.020Z,1.70
2019-04-25T18:13:19.040Z,2.17
2019-04-25T18:15:53.560Z,1.60
2019-04-25T18:18:25.062Z,1.60
2019-04-25T18:20:55.135Z,2.33
2019-04-25T18:23:43.922Z,2.20
2019-04-25T18:26:21.897Z,1.57
2019-04-25T18:28:53.649Z,1.93
2019-04-25T18:31:23.769Z,2.53
2019-04-25T18:33:55.524Z,1.67
2019-04-25T18:36:27.283Z,2.07
2019-04-25T18:39:01.703Z,2.37
2019-04-25T18:41:33.366Z,2.50
2019-04-25T18:44:05.224Z,2.20
2019-04-25T18:46:36.997Z,2.50
2019-04-25T18:49:07.708Z,2.23
2019-04-25T18:51:38.536Z,2.57
2019-04-25T18:54:13.381Z,3.30
2019-04-25T18:56:47.805Z,3.07
2019-04-25T18:59:22.728Z,3.77
2019-04-25T19:02:05.887Z,3.10
2019-04-25T19:04:40.477Z,3.20
2019-04-25T19:07:21.947Z,3.70
2019-04-25T19:09:42.835Z,3.87
2019-04-25T19:12:13.188Z,3.50
2019-04-25T19:14:43.258Z,4.00
2019-04-25T19:17:13.931Z,3.77
2019-04-25T19:19:44.161Z,4.00
2019-04-25T19:22:14.179Z,5.23
2019-04-25T19:24:46.131Z,4.70
2019-04-25T19:27:23.587Z,4.80
2019-04-25T19:29:47.104Z,4.30
2019-04-25T19:32:17.089Z,4.60
2019-04-25T19:34:47.029Z,9.93
2019-04-25T19:37:17.147Z,38.80
2019-04-25T19:39:49.419Z,27.10
2019-04-25T19:42:23.938Z,20.20
2019-04-25T19:44:53.958Z,16.73
2019-04-25T19:47:23.973Z,15.37
2019-04-25T19:49:54.091Z,11.73
2019-04-25T19:52:25.199Z,11.30
2019-04-25T19:54:55.356Z,9.77
2019-04-25T19:57:25.374Z,9.03
2019-04-25T19:59:55.501Z,8.30
2019-04-25T20:02:29.811Z,7.40
2019-04-25T20:05:07.403Z,6.93
2019-04-25T20:07:38.956Z,6.33
2019-04-25T20:10:27.486Z,5.20
2019-04-25T20:12:57.526Z,5.97
2019-04-25T20:15:27.652Z,5.20
2019-04-25T20:17:57.558Z,4.63
2019-04-25T20:20:27.681Z,4.37
2019-04-25T20:22:57.591Z,4.30
2019-04-25T20:25:27.712Z,4.20
2019-04-25T20:27:57.625Z,3.57
2019-04-25T20:30:27.539Z,3.47
2019-04-25T20:32:57.470Z,3.80
2019-04-25T20:35:27.345Z,4.23
2019-04-25T20:37:57.287Z,3.13
2019-04-25T20:40:27.405Z,3.63
2019-04-25T20:42:57.418Z,3.73
2019-04-25T20:45:27.304Z,4.07
2019-04-25T20:47:57.555Z,4.23
2019-04-25T20:50:27.468Z,4.17
2019-04-25T20:52:57.488Z,4.70
2019-04-25T20:55:27.400Z,4.60
2019-04-25T20:57:57.888Z,4.13
2019-04-25T21:00:43.209Z,3.90
2019-04-25T21:03:13.223Z,65.80
2019-04-25T21:05:43.852Z,44.97
2019-04-25T21:08:16.122Z,13.50
2019-04-25T21:10:46.308Z,11.87
2019-04-25T21:13:18.111Z,11.17
2019-04-25T21:15:54.095Z,9.27
2019-04-25T21:18:37.356Z,8.07
2019-04-25T21:21:10.273Z,6.63
2019-04-25T21:23:40.186Z,6.93
2019-04-25T21:26:10.097Z,6.73
2019-04-25T21:28:40.122Z,6.07
2019-04-25T21:31:10.207Z,5.30
2019-04-25T21:33:40.151Z,5.53
2019-04-25T21:36:10.169Z,5.73
2019-04-25T21:38:40.596Z,5.23
2019-04-25T21:41:29.044Z,5.27
2019-04-25T21:44:02.279Z,5.37
2019-04-25T21:46:32.966Z,4.77
2019-04-25T21:49:03.307Z,4.23
2019-04-25T21:51:33.920Z,4.10
2019-04-25T21:54:04.450Z,4.20
2019-04-25T21:56:34.749Z,4.20
2019-04-25T21:59:04.793Z,4.10
2019-04-25T22:01:36.551Z,4.13
2019-04-25T22:04:06.685Z,3.90
2019-04-25T22:06:37.203Z,4.27
2019-04-25T22:09:11.933Z,3.73
2019-04-25T22:11:41.812Z,4.00
2019-04-25T22:14:13.428Z,4.70
2019-04-25T22:16:43.717Z,4.60
2019-04-25T22:19:14.224Z,4.53
2019-04-25T22:21:44.366Z,4.50
2019-04-25T22:24:15.905Z,5.37
2019-04-25T22:26:47.457Z,4.70
2019-04-25T22:29:17.477Z,4.67
2019-04-25T22:31:49.222Z,4.37
2019-04-25T22:34:20.899Z,5.70
2019-04-25T22:36:50.785Z,4.57
2019-04-25T22:39:20.731Z,5.60
2019-04-25T22:41:51.055Z,6.03
2019-04-25T22:44:22.590Z,5.70
2019-04-25T22:46:53.521Z,6.03
2019-04-25T22:49:23.561Z,6.00
2019-04-25T22:51:53.581Z,5.53
2019-04-25T22:54:24.182Z,5.40
2019-04-25T22:56:54.226Z,5.50
2019-04-25T22:59:24.551Z,6.07
2019-04-25T23:01:56.207Z,6.27
2019-04-25T23:04:42.917Z,5.50
2019-04-25T23:07:13.117Z,6.13
2019-04-25T23:09:43.153Z,7.20
2019-04-25T23:12:13.578Z,6.73
2019-04-25T23:14:43.771Z,6.73
2019-04-25T23:17:13.931Z,8.00
2019-04-25T23:19:44.122Z,7.27
2019-04-25T23:22:14.038Z,7.90
2019-04-25T23:25:00.664Z,7.20
2019-04-25T23:27:35.493Z,7.97
2019-04-25T23:30:08.099Z,8.57
2019-04-25T23:32:38.493Z,8.03
2019-04-25T23:35:22.195Z,9.57
2019-04-25T23:37:40.269Z,10.63
2019-04-25T23:40:11.581Z,11.37
2019-04-25T23:42:41.531Z,13.80
2019-04-25T23:45:12.399Z,12.00
2019-04-25T23:47:42.487Z,11.30
2019-04-25T23:50:12.809Z,11.30
2019-04-25T23:52:42.931Z,12.13
2019-04-25T23:55:13.072Z,12.70
2019-04-25T23:57:42.964Z,12.77
